Time;durP1;ratioP1;P1;durP2;ratioP2;P2;SDS_P1;SDS_P2;PMS_P1;PMS_P2;Temp;Humidity;BMP_temperature;BMP_pressure;BME280_temperature;BME280_humidity;BME280_pressure;Samples;Min_cycle;Max_cycle;Signal;HPM_P1;HPM_P2
2022/04/27 00:01:47;;;;;;;26.17;12.00;;;5.60;99.90;;;;;;5020658;28;20199;-74
2022/04/27 00:04:12;;;;;;;24.33;12.10;;;5.60;99.90;;;;;;5020653;28;20186;-75
2022/04/27 00:06:38;;;;;;;23.40;11.30;;;5.70;99.90;;;;;;5020801;28;20183;-74
2022/04/27 00:09:04;;;;;;;35.17;12.67;;;5.60;99.90;;;;;;5020584;28;20565;-75
2022/04/27 00:11:30;;;;;;;29.27;12.43;;;5.70;99.90;;;;;;5020465;28;20208;-74
2022/04/27 00:13:56;;;;;;;25.33;12.27;;;5.60;99.90;;;;;;5020434;28;20193;-74
2022/04/27 00:16:22;;;;;;;27.10;13.37;;;5.70;99.90;;;;;;5020683;28;20572;-74
2022/04/27 00:18:48;;;;;;;30.93;14.30;;;5.70;99.90;;;;;;5020549;28;20207;-74
2022/04/27 00:21:13;;;;;;;32.07;14.20;;;5.60;99.90;;;;;;5020692;28;20262;-74
2022/04/27 00:23:39;;;;;;;31.50;15.07;;;5.80;99.90;;;;;;5020311;28;20234;-74
2022/04/27 00:26:05;;;;;;;37.50;14.10;;;5.90;99.90;;;;;;5020572;28;20535;-74
2022/04/27 00:28:31;;;;;;;39.47;13.87;;;5.90;99.90;;;;;;5036851;28;20190;-74
2022/04/27 00:30:56;;;;;;;52.23;13.90;;;5.90;99.90;;;;;;5020069;28;20212;-74
2022/04/27 00:33:22;;;;;;;59.30;15.13;;;6.00;99.90;;;;;;5036737;28;20180;-74
2022/04/27 00:35:48;;;;;;;44.67;13.50;;;5.90;99.90;;;;;;5020575;28;20274;-74
2022/04/27 00:38:13;;;;;;;46.30;13.63;;;6.00;99.90;;;;;;5003301;28;20691;-74
2022/04/27 00:40:39;;;;;;;54.33;14.10;;;6.00;99.90;;;;;;5003751;28;20204;-74
2022/04/27 00:43:05;;;;;;;46.23;12.90;;;6.00;99.90;;;;;;5003496;28;20647;-74
2022/04/27 00:45:30;;;;;;;52.77;13.17;;;6.00;99.90;;;;;;5019949;28;20273;-74
2022/04/27 00:47:56;;;;;;;59.53;12.73;;;6.10;99.90;;;;;;5003435;28;20187;-74
2022/04/27 00:50:22;;;;;;;52.03;13.43;;;6.10;99.90;;;;;;5011697;23;20246;-74
2022/04/27 00:52:49;;;;;;;46.50;12.43;;;6.10;99.90;;;;;;5036395;28;20262;-74
2022/04/27 00:55:15;;;;;;;38.93;12.07;;;6.00;99.90;;;;;;5036586;28;20643;-74
2022/04/27 00:57:46;;;;;;;33.83;11.20;;;5.90;99.90;;;;;;5036247;28;20168;-74
2022/04/27 01:00:13;;;;;;;37.67;12.50;;;5.90;99.90;;;;;;5032727;28;20198;-74
2022/04/27 01:02:40;;;;;;;21.77;10.60;;;5.80;99.90;;;;;;5016142;28;20192;-74
2022/04/27 01:05:09;;;;;;;29.20;11.40;;;5.80;99.90;;;;;;5032901;28;20259;-74
2022/04/27 01:07:37;;;;;;;33.17;11.43;;;5.80;99.90;;;;;;5016300;28;20260;-74
2022/04/27 01:10:03;;;;;;;22.37;11.97;;;5.90;99.90;;;;;;5032677;28;20367;-74
2022/04/27 01:12:29;;;;;;;32.03;11.63;;;5.80;99.90;;;;;;5016235;28;20199;-74
2022/04/27 01:14:55;;;;;;;29.73;11.60;;;5.80;99.90;;;;;;5016140;28;20173;-74
2022/04/27 01:17:23;;;;;;;34.03;12.47;;;5.70;99.90;;;;;;5000062;28;20185;-74
2022/04/27 01:19:49;;;;;;;39.70;12.00;;;5.70;99.90;;;;;;5016156;28;20192;-74
2022/04/27 01:22:15;;;;;;;46.73;11.87;;;5.70;99.90;;;;;;5015776;28;20180;-74
2022/04/27 01:24:42;;;;;;;53.03;12.17;;;5.70;99.90;;;;;;5015915;28;20543;-74
2022/04/27 01:27:08;;;;;;;44.33;12.63;;;5.80;99.90;;;;;;5015811;28;20180;-74
2022/04/27 01:29:33;;;;;;;38.77;12.20;;;5.70;99.90;;;;;;5015773;28;20211;-74
2022/04/27 01:32:01;;;;;;;34.00;12.23;;;5.60;99.90;;;;;;4999411;28;20197;-74
2022/04/27 01:34:27;;;;;;;28.90;12.07;;;5.70;99.90;;;;;;5015727;28;20176;-74
2022/04/27 01:36:54;;;;;;;41.20;12.50;;;5.80;99.90;;;;;;5015958;28;20176;-74
2022/04/27 01:39:23;;;;;;;50.70;12.57;;;5.70;99.90;;;;;;5016158;28;20634;-74
2022/04/27 01:41:49;;;;;;;42.13;13.00;;;5.60;99.90;;;;;;4999460;28;20212;-74
2022/04/27 01:44:15;;;;;;;56.73;13.20;;;5.60;99.90;;;;;;5032304;28;20220;-74
2022/04/27 01:46:41;;;;;;;52.63;12.47;;;5.50;99.90;;;;;;5015730;28;20180;-74
2022/04/27 01:49:07;;;;;;;45.33;12.27;;;5.50;99.90;;;;;;5014294;28;20185;-74
2022/04/27 01:54:16;;;;;;;35.33;11.70;;;5.40;99.90;;;;;;5018451;28;20187;-74
2022/04/27 01:56:50;;;;;;;45.03;11.93;;;5.30;99.90;;;;;;5015740;28;20183;-74
2022/04/27 01:59:16;;;;;;;56.93;12.03;;;5.20;99.90;;;;;;5031920;28;20181;-74
2022/04/27 02:01:42;;;;;;;55.10;12.23;;;5.20;99.90;;;;;;5032820;28;20537;-74
2022/04/27 02:04:08;;;;;;;38.60;13.40;;;5.20;99.90;;;;;;5031513;28;20175;-74
2022/04/27 02:06:37;;;;;;;31.87;12.23;;;5.10;99.90;;;;;;5031657;28;20185;-74
2022/04/27 02:09:04;;;;;;;38.50;12.70;;;5.20;99.90;;;;;;5015002;28;20186;-73
2022/04/27 02:11:31;;;;;;;34.37;12.87;;;5.20;99.90;;;;;;5032668;28;20274;-73
2022/04/27 02:13:56;;;;;;;34.73;11.37;;;5.40;99.90;;;;;;4998611;28;20178;-74
2022/04/27 02:16:26;;;;;;;26.80;11.30;;;5.50;99.90;;;;;;5015092;28;20174;-74
2022/04/27 02:18:52;;;;;;;51.83;14.50;;;5.50;99.90;;;;;;5031550;28;20182;-74
2022/04/27 02:21:18;;;;;;;42.27;11.43;;;5.50;99.90;;;;;;5014980;28;20195;-73
2022/04/27 02:23:47;;;;;;;54.57;11.67;;;5.50;99.90;;;;;;5015059;28;20199;-74
2022/04/27 02:26:13;;;;;;;42.80;11.60;;;5.60;99.90;;;;;;5014850;28;20178;-74
2022/04/27 02:28:39;;;;;;;35.80;10.87;;;5.50;99.90;;;;;;4998542;28;20190;-74
2022/04/27 02:31:04;;;;;;;49.80;12.10;;;5.40;99.90;;;;;;5030986;28;20211;-74
2022/04/27 02:33:30;;;;;;;47.73;11.27;;;5.30;99.90;;;;;;5014487;28;20175;-74
2022/04/27 02:35:57;;;;;;;38.27;11.83;;;5.30;99.90;;;;;;5014525;28;20175;-73
2022/04/27 02:38:22;;;;;;;60.40;12.40;;;5.40;99.90;;;;;;5031416;28;20179;-73
2022/04/27 02:40:48;;;;;;;64.30;11.13;;;5.30;99.90;;;;;;5031024;28;20213;-74
2022/04/27 02:43:15;;;;;;;51.67;11.37;;;5.20;99.90;;;;;;5014483;28;20194;-73
2022/04/27 02:45:41;;;;;;;37.60;10.93;;;5.20;99.90;;;;;;5031093;28;20183;-74
2022/04/27 02:48:07;;;;;;;47.03;11.70;;;5.30;99.90;;;;;;4997956;28;20183;-74
2022/04/27 02:53:17;;;;;;;50.03;11.10;;;5.40;99.90;;;;;;5032315;28;20181;-73
2022/04/27 02:55:44;;;;;;;34.30;10.23;;;5.40;99.90;;;;;;5014596;28;20270;-73
2022/04/27 02:58:10;;;;;;;40.37;10.53;;;5.20;99.90;;;;;;5030985;28;20175;-73
2022/04/27 03:00:35;;;;;;;33.90;10.53;;;5.30;99.90;;;;;;5031038;28;20202;-73
2022/04/27 03:03:01;;;;;;;41.10;10.50;;;5.30;99.90;;;;;;5014164;28;20208;-74
2022/04/27 03:05:26;;;;;;;24.20;9.70;;;5.30;99.90;;;;;;5031000;28;20178;-74
2022/04/27 03:07:52;;;;;;;43.10;11.07;;;5.40;99.90;;;;;;4997946;28;20874;-74
2022/04/27 03:10:18;;;;;;;38.93;10.17;;;5.40;99.90;;;;;;5014204;28;20210;-74
2022/04/27 03:12:43;;;;;;;31.50;9.97;;;5.30;99.90;;;;;;5014256;28;20197;-74
2022/04/27 03:15:09;;;;;;;33.80;9.80;;;5.30;99.90;;;;;;4997892;28;20178;-74
2022/04/27 03:17:35;;;;;;;35.70;12.00;;;5.30;99.90;;;;;;4981727;28;20234;-74
2022/04/27 03:20:00;;;;;;;32.60;10.20;;;5.40;99.90;;;;;;5014149;28;20187;-74
2022/04/27 03:22:26;;;;;;;34.37;10.00;;;5.40;99.90;;;;;;5030684;28;20187;-74
2022/04/27 03:24:52;;;;;;;20.47;9.73;;;5.30;99.90;;;;;;5014285;28;20178;-74
2022/04/27 03:27:17;;;;;;;23.53;10.83;;;5.30;99.90;;;;;;4997960;28;20229;-74
2022/04/27 03:29:43;;;;;;;18.27;10.07;;;5.40;99.90;;;;;;5014066;28;20203;-74
2022/04/27 03:32:11;;;;;;;19.63;10.20;;;5.40;99.90;;;;;;5013962;28;20725;-74
2022/04/27 03:34:37;;;;;;;19.33;9.63;;;5.40;99.90;;;;;;5014282;28;20183;-74
2022/04/27 03:37:03;;;;;;;12.23;8.97;;;5.50;99.90;;;;;;4997946;28;20183;-74
2022/04/27 03:39:28;;;;;;;12.53;8.70;;;5.50;99.90;;;;;;5031833;28;20589;-74
2022/04/27 03:41:54;;;;;;;21.83;9.57;;;5.60;99.90;;;;;;4981378;28;20674;-74
2022/04/27 03:44:19;;;;;;;16.47;9.23;;;5.50;99.90;;;;;;4981635;28;20195;-74
2022/04/27 03:46:45;;;;;;;13.03;8.80;;;5.50;99.90;;;;;;4997723;28;20184;-74
2022/04/27 03:49:11;;;;;;;19.30;9.07;;;5.50;99.90;;;;;;4997460;28;20727;-74
2022/04/27 03:51:37;;;;;;;26.80;9.43;;;5.50;99.90;;;;;;5014097;28;20215;-74
2022/04/27 03:54:03;;;;;;;25.80;9.60;;;5.40;99.90;;;;;;4997466;28;20303;-74
2022/04/27 03:56:28;;;;;;;30.80;10.10;;;5.30;99.90;;;;;;4981616;28;20193;-74
2022/04/27 03:58:54;;;;;;;35.30;11.03;;;5.30;99.90;;;;;;5013837;28;20179;-74
2022/04/27 04:01:20;;;;;;;19.50;10.10;;;5.20;99.90;;;;;;5013666;28;20207;-74
2022/04/27 04:03:45;;;;;;;27.23;10.13;;;5.20;99.90;;;;;;5013830;28;20183;-74
2022/04/27 04:06:11;;;;;;;21.77;9.90;;;5.20;99.90;;;;;;5030455;28;20263;-74
2022/04/27 04:08:37;;;;;;;37.13;10.20;;;5.30;99.90;;;;;;4981416;28;20183;-73
2022/04/27 04:11:02;;;;;;;48.13;11.03;;;5.30;99.90;;;;;;4997504;28;20782;-73
2022/04/27 04:13:28;;;;;;;42.43;10.27;;;5.40;99.90;;;;;;5016573;28;20226;-74
2022/04/27 04:15:54;;;;;;;44.03;10.80;;;5.30;99.90;;;;;;5001035;28;20175;-74
2022/04/27 04:18:19;;;;;;;27.77;9.80;;;5.30;99.90;;;;;;5000960;28;20232;-73
2022/04/27 04:20:45;;;;;;;38.37;9.13;;;5.30;99.90;;;;;;5000872;28;20204;-73
2022/04/27 04:23:11;;;;;;;34.63;9.13;;;5.20;99.90;;;;;;4984502;28;20231;-73
2022/04/27 04:28:32;;;;;;;42.60;9.33;;;5.20;99.90;;;;;;5020330;28;20219;-74
2022/04/27 04:31:03;;;;;;;55.67;10.20;;;5.10;99.90;;;;;;4987530;28;20206;-74
2022/04/27 04:33:29;;;;;;;51.50;10.00;;;5.00;99.90;;;;;;5000396;28;20202;-74
2022/04/27 04:35:57;;;;;;;29.80;8.80;;;5.10;99.90;;;;;;5033333;28;20178;-73
2022/04/27 04:38:22;;;;;;;32.47;8.07;;;4.90;99.90;;;;;;4984436;28;20185;-74
2022/04/27 04:40:48;;;;;;;21.60;7.50;;;4.90;99.90;;;;;;5000425;28;20214;-74
2022/04/27 04:43:14;;;;;;;38.30;9.30;;;4.80;99.90;;;;;;5000594;28;20597;-73
2022/04/27 04:45:40;;;;;;;31.33;7.60;;;4.70;99.90;;;;;;5034338;28;20701;-73
2022/04/27 04:48:08;;;;;;;28.77;8.50;;;4.80;99.90;;;;;;5000229;28;20212;-74
2022/04/27 04:50:35;;;;;;;13.10;7.40;;;4.90;99.90;;;;;;5000478;28;20692;-77
2022/04/27 04:53:00;;;;;;;24.43;9.23;;;5.00;99.90;;;;;;5016588;28;20174;-75
2022/04/27 04:55:26;;;;;;;28.07;7.90;;;5.00;99.90;;;;;;5000221;28;20180;-75
2022/04/27 04:57:52;;;;;;;10.43;6.00;;;5.00;99.90;;;;;;5000127;28;20193;-74
2022/04/27 05:00:17;;;;;;;9.37;6.50;;;5.00;99.90;;;;;;4984111;28;20233;-74
2022/04/27 05:02:44;;;;;;;15.53;12.37;;;5.80;99.90;;;;;;4983695;28;20186;-74
2022/04/27 05:05:10;;;;;;;8.13;6.73;;;6.60;99.90;;;;;;5016373;28;20178;-73
2022/04/27 05:07:35;;;;;;;8.57;6.43;;;7.20;99.90;;;;;;5000274;28;20179;-75
2022/04/27 05:10:02;;;;;;;15.17;7.67;;;7.60;99.90;;;;;;5016061;28;20587;-75
2022/04/27 05:12:27;;;;;;;19.83;7.17;;;7.20;99.90;;;;;;4999826;28;20197;-76
2022/04/27 05:14:53;;;;;;;19.57;6.77;;;6.80;99.90;;;;;;4983813;28;20381;-75
2022/04/27 05:17:19;;;;;;;20.73;8.13;;;6.50;99.90;;;;;;5016048;28;20176;-75
2022/04/27 05:19:45;;;;;;;22.03;7.83;;;6.30;99.90;;;;;;5033781;28;20182;-74
2022/04/27 05:22:10;;;;;;;22.90;7.23;;;6.10;99.90;;;;;;5015985;28;20182;-75
2022/04/27 05:24:36;;;;;;;30.77;7.27;;;6.00;99.90;;;;;;4982312;28;20192;-75
2022/04/27 05:27:03;;;;;;;23.60;11.17;;;5.70;99.90;;;;;;5015960;28;20524;-75
2022/04/27 05:32:12;;;;;;;15.20;7.00;;;5.60;99.90;;;;;;5004839;28;20548;-75
2022/04/27 05:34:38;;;;;;;15.30;7.50;;;5.70;99.90;;;;;;4999631;28;20691;-74
2022/04/27 05:37:05;;;;;;;36.80;14.17;;;5.50;99.90;;;;;;4999411;28;20177;-75
2022/04/27 05:39:31;;;;;;;34.07;20.63;;;5.40;99.90;;;;;;5032420;28;20646;-75
2022/04/27 05:41:56;;;;;;;21.83;8.90;;;5.50;99.90;;;;;;5032037;28;20200;-75
2022/04/27 05:44:24;;;;;;;8.17;6.77;;;5.50;99.90;;;;;;4999433;28;20183;-75
2022/04/27 05:46:54;;;;;;;16.27;7.07;;;5.70;99.90;;;;;;4999207;28;20695;-75
2022/04/27 05:49:20;;;;;;;11.87;6.80;;;5.70;99.90;;;;;;5015546;28;20173;-75
2022/04/27 05:51:46;;;;;;;10.20;6.30;;;5.70;99.90;;;;;;4999045;28;20215;-75
2022/04/27 05:54:16;;;;;;;13.77;6.73;;;5.70;99.90;;;;;;4999417;28;20188;-76
2022/04/27 05:56:42;;;;;;;9.90;6.60;;;5.80;99.90;;;;;;5015641;28;20175;-78
2022/04/27 05:59:09;;;;;;;13.60;7.10;;;5.60;99.90;;;;;;4999045;28;20681;-75
2022/04/27 06:01:35;;;;;;;18.17;7.20;;;5.70;99.90;;;;;;5015030;28;20195;-75
2022/04/27 06:04:01;;;;;;;21.37;8.40;;;5.60;99.90;;;;;;4998684;28;20172;-75
2022/04/27 06:06:26;;;;;;;28.20;8.53;;;5.60;99.90;;;;;;5015157;28;20240;-74
2022/04/27 06:08:53;;;;;;;15.30;7.80;;;5.70;99.90;;;;;;5015502;28;20182;-75
2022/04/27 06:11:19;;;;;;;23.73;7.80;;;5.70;99.90;;;;;;5014885;28;20226;-75
2022/04/27 06:13:48;;;;;;;67.27;10.10;;;5.60;99.90;;;;;;4999027;28;20178;-73
2022/04/27 06:16:15;;;;;;;36.27;8.17;;;5.50;99.90;;;;;;5031557;28;20269;-75
2022/04/27 06:18:41;;;;;;;18.80;7.23;;;5.60;99.90;;;;;;5015038;28;20176;-75
2022/04/27 06:21:08;;;;;;;15.80;7.27;;;5.50;99.90;;;;;;4998653;28;20205;-76
2022/04/27 06:23:37;;;;;;;25.37;8.43;;;5.60;99.90;;;;;;5014766;28;20652;-75
2022/04/27 06:26:05;;;;;;;41.20;9.17;;;5.60;99.90;;;;;;4999457;28;20324;-74
2022/04/27 06:28:32;;;;;;;38.67;11.07;;;5.60;99.90;;;;;;5019710;28;20183;-76
2022/04/27 06:30:57;;;;;;;32.93;9.33;;;5.50;99.90;;;;;;5022385;28;20234;-75
2022/04/27 06:33:23;;;;;;;45.10;9.50;;;5.70;99.90;;;;;;5014090;28;20211;-75
2022/04/27 06:35:50;;;;;;;31.03;8.53;;;5.80;99.90;;;;;;4999029;28;20240;-75
2022/04/27 06:38:16;;;;;;;20.73;10.13;;;5.70;99.90;;;;;;5011613;28;20598;-75
2022/04/27 06:40:41;;;;;;;13.47;7.00;;;5.80;99.90;;;;;;5031441;28;20293;-74
2022/04/27 06:43:41;;;;;;;28.67;8.83;;;5.90;99.90;;;;;;5013527;28;20187;-75
2022/04/27 06:46:07;;;;;;;13.53;8.13;;;5.80;99.90;;;;;;5014934;28;20163;-75
2022/04/27 06:48:33;;;;;;;15.23;8.73;;;6.00;99.90;;;;;;5015203;28;20188;-76
2022/04/27 06:50:58;;;;;;;13.80;9.57;;;6.10;99.90;;;;;;5014804;28;20306;-75
2022/04/27 06:53:24;;;;;;;24.60;9.47;;;6.20;99.90;;;;;;5014451;28;20199;-75
2022/04/27 06:55:50;;;;;;;29.90;9.23;;;6.30;99.90;;;;;;5015045;28;20183;-74
2022/04/27 06:58:16;;;;;;;12.87;8.77;;;6.30;99.90;;;;;;5015067;28;20175;-75
2022/04/27 07:00:41;;;;;;;50.43;11.33;;;6.50;99.90;;;;;;5014831;28;20202;-74
2022/04/27 07:03:07;;;;;;;12.10;9.10;;;6.60;99.90;;;;;;5014108;28;20185;-75
2022/04/27 07:05:33;;;;;;;11.63;8.30;;;6.70;99.90;;;;;;5015154;28;20325;-74
2022/04/27 07:07:58;;;;;;;14.73;9.30;;;6.80;99.90;;;;;;5014794;28;20187;-75
2022/04/27 07:10:24;;;;;;;12.60;9.50;;;6.80;99.90;;;;;;5031105;28;20221;-74
2022/04/27 07:12:50;;;;;;;15.13;9.23;;;6.80;99.90;;;;;;5030553;28;20184;-75
2022/04/27 07:15:16;;;;;;;17.70;9.77;;;6.90;99.90;;;;;;5014497;28;20172;-75
2022/04/27 07:17:43;;;;;;;14.67;10.07;;;7.00;99.90;;;;;;5014728;28;20176;-75
2022/04/27 07:20:09;;;;;;;18.67;9.73;;;7.00;99.90;;;;;;5031061;28;20202;-74
2022/04/27 07:22:35;;;;;;;13.33;10.10;;;7.00;99.90;;;;;;5030713;28;20179;-74
2022/04/27 07:25:00;;;;;;;15.37;9.93;;;7.10;99.90;;;;;;4998275;28;20275;-75
2022/04/27 07:27:27;;;;;;;22.53;10.47;;;7.20;99.90;;;;;;5014618;28;20260;-75
2022/04/27 07:29:53;;;;;;;15.30;10.57;;;7.20;99.90;;;;;;4998502;28;20210;-74
2022/04/27 07:32:19;;;;;;;17.47;10.93;;;7.30;99.90;;;;;;4997987;28;20181;-74
2022/04/27 07:34:44;;;;;;;15.37;10.63;;;7.50;99.90;;;;;;4998773;28;20187;-73
2022/04/27 07:37:10;;;;;;;14.17;10.80;;;7.50;99.90;;;;;;5026480;28;20577;-74
2022/04/27 07:39:36;;;;;;;15.73;11.00;;;7.50;99.90;;;;;;5032202;28;20180;-74
2022/04/27 07:42:21;;;;;;;14.93;11.20;;;7.50;99.90;;;;;;5013315;28;20211;-74
2022/04/27 07:44:47;;;;;;;18.27;11.80;;;7.50;99.90;;;;;;5014930;28;20186;-74
2022/04/27 07:47:13;;;;;;;15.17;11.63;;;7.60;99.90;;;;;;5032103;28;20177;-74
2022/04/27 07:49:39;;;;;;;15.80;12.73;;;7.70;99.90;;;;;;5018491;28;20194;-74
2022/04/27 07:52:05;;;;;;;17.73;12.73;;;7.70;99.90;;;;;;5017696;28;20282;-74
2022/04/27 07:54:30;;;;;;;15.33;12.07;;;7.80;99.90;;;;;;5034598;28;20177;-74
2022/04/27 07:56:56;;;;;;;15.30;11.80;;;7.90;99.90;;;;;;5017990;28;20236;-74
2022/04/27 07:59:21;;;;;;;16.10;12.17;;;8.00;99.90;;;;;;5034409;28;20261;-74
2022/04/27 08:01:47;;;;;;;14.87;11.90;;;8.00;99.90;;;;;;5017881;28;20193;-74
2022/04/27 08:04:12;;;;;;;16.10;12.13;;;8.10;99.90;;;;;;5018071;28;20175;-74
2022/04/27 08:06:38;;;;;;;16.20;12.10;;;8.30;99.90;;;;;;5018180;28;20178;-74
2022/04/27 08:09:04;;;;;;;17.03;12.33;;;8.30;99.90;;;;;;5034356;28;20204;-74
2022/04/27 08:11:29;;;;;;;16.60;11.90;;;8.40;99.90;;;;;;5017485;28;20622;-74
2022/04/27 08:14:13;;;;;;;15.00;12.07;;;8.40;99.90;;;;;;5016733;28;20181;-74
2022/04/27 08:16:39;;;;;;;16.00;12.20;;;8.40;99.90;;;;;;5018097;28;20169;-74
2022/04/27 08:19:04;;;;;;;17.10;12.73;;;8.30;99.90;;;;;;5017996;28;20175;-74
2022/04/27 08:21:30;;;;;;;16.17;12.80;;;8.50;99.90;;;;;;5017591;28;20198;-75
2022/04/27 08:23:56;;;;;;;14.63;12.47;;;8.90;99.90;;;;;;5017550;28;20551;-74
2022/04/27 08:26:22;;;;;;;16.43;13.40;;;9.10;99.90;;;;;;5013302;28;20646;-74
2022/04/27 08:28:48;;;;;;;17.00;12.73;;;9.10;99.90;;;;;;5035241;28;20170;-75
2022/04/27 08:31:17;;;;;;;16.57;12.10;;;9.10;99.90;;;;;;5017699;28;20213;-74
2022/04/27 08:33:43;;;;;;;17.47;12.93;;;9.30;99.90;;;;;;5016862;28;20178;-74
2022/04/27 08:36:08;;;;;;;15.47;12.50;;;9.20;99.90;;;;;;5001447;28;20185;-74
2022/04/27 08:38:35;;;;;;;17.87;13.77;;;9.30;99.90;;;;;;5017425;28;20183;-75
2022/04/27 08:41:01;;;;;;;17.73;13.30;;;9.50;99.90;;;;;;5000956;28;20217;-74
2022/04/27 08:43:27;;;;;;;15.50;12.50;;;9.60;99.90;;;;;;5017014;28;20539;-74
2022/04/27 08:45:54;;;;;;;14.23;12.23;;;9.60;99.90;;;;;;5017621;28;20176;-74
2022/04/27 08:48:21;;;;;;;14.70;12.37;;;9.50;99.90;;;;;;5017261;28;20721;-74
2022/04/27 08:50:48;;;;;;;16.53;13.03;;;9.40;99.90;;;;;;5000614;28;20214;-74
2022/04/27 08:53:14;;;;;;;15.77;12.57;;;9.60;99.90;;;;;;5000533;28;20387;-74
2022/04/27 08:55:40;;;;;;;15.67;12.83;;;9.90;99.90;;;;;;5017392;28;20176;-74
2022/04/27 08:58:09;;;;;;;19.67;13.53;;;10.00;99.90;;;;;;5016321;28;20172;-74
2022/04/27 09:00:36;;;;;;;17.17;13.73;;;10.30;99.90;;;;;;5015702;28;20207;-74
2022/04/27 09:03:38;;;;;;;15.97;12.50;;;10.60;99.90;;;;;;5016326;28;20192;-75
2022/04/27 09:06:10;;;;;;;15.97;13.53;;;10.80;99.90;;;;;;5016917;28;20177;-74
2022/04/27 09:08:52;;;;;;;17.27;12.83;;;11.00;99.90;;;;;;5017073;28;20170;-75
2022/04/27 09:11:25;;;;;;;15.70;13.27;;;11.10;99.90;;;;;;5033086;28;20210;-74
2022/04/27 09:14:07;;;;;;;14.63;12.63;;;11.30;99.90;;;;;;5031316;28;20221;-75
2022/04/27 09:22:26;;;;;;;15.23;12.20;;;12.20;99.90;;;;;;5033961;28;20169;-74
2022/04/27 09:24:53;;;;;;;15.23;11.93;;;12.40;99.90;;;;;;5033339;28;20189;-74
2022/04/27 09:27:23;;;;;;;14.37;11.73;;;12.30;99.90;;;;;;5033310;28;20188;-74
2022/04/27 09:29:59;;;;;;;16.23;12.37;;;12.20;99.90;;;;;;5016341;28;20205;-75
2022/04/27 09:32:25;;;;;;;13.00;11.70;;;12.40;99.90;;;;;;5015783;28;20201;-75
2022/04/27 09:34:51;;;;;;;13.10;11.70;;;12.70;99.90;;;;;;5016528;28;20269;-75
2022/04/27 09:37:24;;;;;;;14.40;12.90;;;12.80;99.90;;;;;;5016507;28;20293;-75
2022/04/27 09:40:11;;;;;;;17.00;15.17;;;13.00;99.90;;;;;;5016604;28;20209;-75
2022/04/27 09:42:43;;;;;;;13.77;11.90;;;13.30;99.90;;;;;;5032237;28;20170;-75
2022/04/27 09:45:25;;;;;;;15.07;12.23;;;13.60;99.90;;;;;;5028579;28;20185;-75
2022/04/27 09:48:01;;;;;;;15.80;11.47;;;13.60;99.90;;;;;;5002415;28;20187;-74
2022/04/27 09:50:44;;;;;;;12.90;10.97;;;13.80;99.90;;;;;;5017191;28;20217;-74
2022/04/27 09:53:11;;;;;;;14.47;12.87;;;14.10;99.90;;;;;;5015688;28;20203;-75
2022/04/27 09:55:42;;;;;;;10.87;9.63;;;14.30;99.90;;;;;;5033503;28;20228;-74
2022/04/27 09:58:09;;;;;;;12.17;10.47;;;14.60;99.90;;;;;;5016581;28;20159;-75
2022/04/27 10:00:36;;;;;;;20.53;18.43;;;14.70;99.90;;;;;;4999856;28;20571;-75
2022/04/27 10:03:02;;;;;;;13.83;10.70;;;14.90;99.90;;;;;;4998954;28;20221;-75
2022/04/27 10:05:28;;;;;;;10.40;9.13;;;15.00;99.90;;;;;;4999304;28;20729;-75
2022/04/27 10:07:54;;;;;;;11.33;10.23;;;15.10;99.90;;;;;;4999647;28;20265;-75
2022/04/27 10:10:21;;;;;;;11.47;10.27;;;15.30;99.90;;;;;;4998551;28;20244;-76
2022/04/27 10:13:02;;;;;;;12.67;11.37;;;15.50;99.90;;;;;;5013917;28;20196;-77
2022/04/27 10:15:29;;;;;;;10.40;9.30;;;15.80;99.90;;;;;;5015787;28;20159;-76
2022/04/27 10:17:55;;;;;;;9.77;8.60;;;16.00;99.90;;;;;;4999628;28;20181;-76
2022/04/27 10:20:29;;;;;;;10.47;9.00;;;16.10;99.90;;;;;;4999190;28;20202;-76
2022/04/27 10:23:24;;;;;;;8.90;8.00;;;16.30;99.90;;;;;;5015287;28;20189;-76
2022/04/27 10:26:11;;;;;;;8.27;7.37;;;16.30;99.90;;;;;;4996389;28;20194;-77
2022/04/27 10:28:40;;;;;;;10.70;8.03;;;16.40;99.90;;;;;;5015626;28;20178;-75
2022/04/27 10:31:09;;;;;;;10.80;8.30;;;16.30;99.90;;;;;;5015148;28;20201;-75
2022/04/27 10:33:42;;;;;;;21.13;12.97;;;16.30;99.90;;;;;;5014629;28;20174;-75
2022/04/27 10:36:40;;;;;;;9.00;8.00;;;16.40;99.90;;;;;;4999163;28;20175;-76
2022/04/27 10:39:11;;;;;;;10.40;8.20;;;16.60;99.90;;;;;;4946077;28;20232;-76
2022/04/27 10:41:39;;;;;;;8.97;8.07;;;16.40;99.90;;;;;;5015202;28;20210;-76
2022/04/27 10:44:05;;;;;;;8.70;7.77;;;16.40;99.90;;;;;;5014917;28;20209;-77
2022/04/27 10:46:44;;;;;;;11.07;7.43;;;16.60;99.90;;;;;;5015084;28;20182;-77
2022/04/27 10:49:23;;;;;;;10.03;7.50;;;16.90;99.90;;;;;;5015511;28;20170;-76
2022/04/27 10:52:00;;;;;;;9.80;8.13;;;17.10;99.90;;;;;;5014598;28;20312;-76
2022/04/27 10:54:27;;;;;;;7.07;6.20;;;17.10;99.90;;;;;;5015270;28;20170;-76
2022/04/27 10:56:53;;;;;;;9.80;7.67;;;17.40;99.90;;;;;;4998782;28;20189;-76
2022/04/27 10:59:59;;;;;;;6.30;5.40;;;17.70;99.90;;;;;;4998978;28;20186;-76
2022/04/27 11:02:44;;;;;;;9.90;9.00;;;17.80;99.90;;;;;;5010815;28;20186;-77
2022/04/27 11:05:13;;;;;;;7.77;5.67;;;17.60;99.90;;;;;;4999017;28;20171;-76
2022/04/27 11:07:58;;;;;;;7.33;5.37;;;17.90;99.90;;;;;;5014894;28;20177;-76
2022/04/27 11:10:25;;;;;;;7.97;7.17;;;17.90;99.90;;;;;;5014633;28;20210;-77
2022/04/27 11:16:13;;;;;;;5.20;4.70;;;18.50;99.90;;;;;;5032584;28;20158;-76
2022/04/27 11:18:58;;;;;;;7.60;5.23;;;18.70;99.90;;;;;;5032361;28;20537;-77
2022/04/27 11:21:29;;;;;;;5.33;4.47;;;19.00;99.90;;;;;;5015990;28;20198;-76
2022/04/27 11:23:57;;;;;;;6.17;4.50;;;19.30;99.90;;;;;;5018537;28;20182;-77
2022/04/27 11:26:22;;;;;;;6.63;5.13;;;19.50;99.90;;;;;;5025205;28;20196;-77
2022/04/27 11:28:49;;;;;;;5.13;4.40;;;19.50;99.90;;;;;;5038569;28;20550;-77
2022/04/27 11:31:16;;;;;;;9.70;8.80;;;19.70;99.90;;;;;;5055806;28;20205;-77
2022/04/27 11:33:42;;;;;;;5.93;4.23;;;19.60;99.90;;;;;;5038034;28;20586;-77
2022/04/27 11:36:19;;;;;;;4.10;3.70;;;20.00;99.90;;;;;;5038206;28;20663;-77
2022/04/27 11:38:45;;;;;;;5.20;3.83;;;20.20;99.90;;;;;;5038176;28;20165;-77
2022/04/27 11:41:15;;;;;;;4.33;3.93;;;20.30;99.90;;;;;;5038332;28;20220;-77
2022/04/27 11:43:42;;;;;;;4.80;4.37;;;19.80;99.90;;;;;;5021196;28;20184;-77
2022/04/27 11:46:09;;;;;;;4.03;3.63;;;19.80;99.90;;;;;;5022098;28;20185;-76
2022/04/27 11:48:34;;;;;;;4.17;3.47;;;20.00;99.90;;;;;;5021790;28;20181;-76
2022/04/27 11:51:01;;;;;;;4.13;3.83;;;20.10;99.30;;;;;;5037952;28;20209;-77
2022/04/27 11:53:28;;;;;;;4.00;3.33;;;20.40;97.60;;;;;;5037290;28;20174;-77
2022/04/27 11:55:54;;;;;;;3.65;3.17;;;20.50;99.90;;;;;;5038042;28;20170;-76
2022/04/27 11:58:28;;;;;;;4.50;4.10;;;20.80;96.10;;;;;;5037956;28;20177;-76
2022/04/27 12:01:00;;;;;;;3.55;2.88;;;20.80;93.20;;;;;;5037999;28;20193;-77
2022/04/27 12:03:27;;;;;;;3.88;3.33;;;20.70;98.30;;;;;;5020540;28;20239;-77
2022/04/27 12:05:54;;;;;;;4.22;3.83;;;20.70;97.90;;;;;;5021369;28;20205;-76
2022/04/27 12:08:22;;;;;;;3.88;3.42;;;20.40;93.60;;;;;;5037718;28;20165;-77
2022/04/27 12:10:49;;;;;;;3.90;3.50;;;20.20;97.50;;;;;;5037681;28;20232;-77
2022/04/27 12:13:21;;;;;;;4.07;3.65;;;20.30;95.10;;;;;;5019378;28;20530;-77
2022/04/27 12:15:51;;;;;;;4.32;3.42;;;20.30;91.30;;;;;;5021164;28;20231;-77
2022/04/27 12:18:22;;;;;;;4.07;3.60;;;20.10;93.40;;;;;;5036223;28;20166;-77
2022/04/27 12:20:48;;;;;;;3.83;3.45;;;20.30;98.50;;;;;;5054314;28;20186;-77
2022/04/27 12:23:21;;;;;;;4.53;3.15;;;20.40;94.60;;;;;;5019826;28;20231;-77
2022/04/27 12:25:53;;;;;;;5.05;3.40;;;20.50;93.20;;;;;;5037527;28;20170;-77
2022/04/27 12:28:21;;;;;;;3.50;3.20;;;20.20;91.50;;;;;;5036950;28;20242;-77
2022/04/27 12:30:53;;;;;;;5.15;3.13;;;20.20;90.50;;;;;;5020274;28;20214;-77
2022/04/27 12:33:32;;;;;;;3.85;2.80;;;20.40;94.50;;;;;;5019714;28;20231;-77
2022/04/27 12:39:03;;;;;;;2.67;2.47;;;20.50;88.00;;;;;;5040021;28;20176;-77
2022/04/27 12:41:39;;;;;;;2.55;2.20;;;20.70;81.50;;;;;;5054235;28;20190;-77
2022/04/27 12:44:24;;;;;;;2.90;2.53;;;21.20;80.00;;;;;;5036274;28;20171;-77
2022/04/27 12:47:07;;;;;;;2.83;2.63;;;21.60;76.50;;;;;;5020669;28;20559;-77
2022/04/27 12:49:34;;;;;;;2.53;2.13;;;21.30;62.00;;;;;;5020857;28;20177;-77
2022/04/27 12:52:23;;;;;;;2.50;2.30;;;21.40;67.40;;;;;;5019663;28;20700;-77
2022/04/27 12:54:50;;;;;;;2.38;2.17;;;21.70;65.40;;;;;;5054357;28;20181;-77
2022/04/27 12:57:16;;;;;;;3.67;2.30;;;21.90;64.10;;;;;;5036498;28;20162;-77
2022/04/27 12:59:58;;;;;;;2.30;2.10;;;21.90;59.20;;;;;;5036501;28;20189;-77
2022/04/27 13:02:24;;;;;;;2.70;2.50;;;21.90;65.10;;;;;;5035708;28;20185;-77
2022/04/27 13:04:52;;;;;;;2.85;2.65;;;21.50;68.80;;;;;;5036336;28;20223;-77
2022/04/27 13:07:18;;;;;;;3.83;2.85;;;22.00;66.60;;;;;;5019790;28;20265;-77
2022/04/27 13:12:38;;;;;;;3.25;2.50;;;22.00;58.90;;;;;;5038698;28;20173;-77